createdAt,value
2023-03-24T00:00:11.895Z,100.00
2023-03-24T00:03:17.097Z,100.00
2023-03-24T00:06:22.490Z,100.00
2023-03-24T00:09:26.838Z,100.00
2023-03-24T00:12:29.583Z,100.00
2023-03-24T00:15:33.723Z,100.00
2023-03-24T00:18:36.938Z,100.00
2023-03-24T00:21:41.969Z,100.00
2023-03-24T00:24:46.579Z,100.00
2023-03-24T00:27:49.964Z,100.00
2023-03-24T00:30:53.177Z,100.00
2023-03-24T00:33:56.085Z,100.00
2023-03-24T00:36:58.953Z,100.00
2023-03-24T00:40:06.883Z,100.00
2023-03-24T00:43:09.710Z,100.00
2023-03-24T00:46:27.218Z,100.00
2023-03-24T00:49:43.050Z,100.00
2023-03-24T00:52:48.084Z,100.00
2023-03-24T00:55:52.744Z,100.00
2023-03-24T00:58:57.809Z,100.00
2023-03-24T01:02:00.852Z,100.00
2023-03-24T01:05:03.846Z,100.00
2023-03-24T01:08:07.377Z,100.00
2023-03-24T01:11:12.838Z,100.00
2023-03-24T01:14:16.091Z,100.00
2023-03-24T01:17:19.783Z,100.00
2023-03-24T01:20:24.149Z,100.00
2023-03-24T01:23:27.214Z,100.00
2023-03-24T01:26:31.435Z,100.00
2023-03-24T01:29:34.344Z,100.00
2023-03-24T01:32:37.377Z,100.00
2023-03-24T01:35:40.288Z,100.00
2023-03-24T01:38:43.069Z,100.00
2023-03-24T01:41:47.652Z,100.00
2023-03-24T01:44:52.258Z,100.00
2023-03-24T01:47:55.637Z,100.00
2023-03-24T01:51:02.683Z,100.00
2023-03-24T01:54:08.597Z,100.00
2023-03-24T01:57:18.595Z,100.00
2023-03-24T02:00:22.053Z,100.00
2023-03-24T02:03:30.079Z,100.00
2023-03-24T02:06:35.655Z,100.00
2023-03-24T02:09:38.565Z,100.00
2023-03-24T02:12:43.611Z,100.00
2023-03-24T02:16:14.699Z,100.00
2023-03-24T02:20:02.264Z,100.00
2023-03-24T02:23:42.206Z,100.00
2023-03-24T02:27:02.072Z,100.00
2023-03-24T02:30:29.619Z,100.00
2023-03-24T02:34:02.288Z,100.00
2023-03-24T02:37:37.385Z,100.00
2023-03-24T02:40:48.150Z,100.00
2023-03-24T02:44:00.672Z,100.00
2023-03-24T02:47:11.508Z,100.00
2023-03-24T02:50:24.607Z,100.00
2023-03-24T02:53:33.135Z,100.00
2023-03-24T02:56:42.683Z,100.00
2023-03-24T02:59:51.693Z,100.00
2023-03-24T03:03:00.690Z,100.00
2023-03-24T03:06:10.482Z,100.00
2023-03-24T03:09:17.324Z,100.00
2023-03-24T03:12:24.308Z,100.00
2023-03-24T03:15:33.455Z,100.00
2023-03-24T03:18:41.457Z,100.00
2023-03-24T03:21:45.722Z,100.00
2023-03-24T03:24:53.010Z,100.00
2023-03-24T03:28:01.043Z,100.00
2023-03-24T03:31:07.796Z,100.00
2023-03-24T03:34:19.033Z,100.00
2023-03-24T03:37:27.564Z,100.00
2023-03-24T03:40:36.164Z,100.00
2023-03-24T03:43:40.530Z,100.00
2023-03-24T03:46:44.155Z,100.00
2023-03-24T03:49:47.341Z,100.00
2023-03-24T03:52:52.157Z,100.00
2023-03-24T03:55:56.904Z,100.00
2023-03-24T03:59:01.407Z,100.00
2023-03-24T04:02:25.391Z,100.00
2023-03-24T04:05:34.831Z,100.00
2023-03-24T04:08:49.537Z,100.00
2023-03-24T04:12:09.020Z,100.00
2023-03-24T04:15:30.247Z,100.00
2023-03-24T04:18:43.929Z,100.00
2023-03-24T04:22:00.463Z,100.00
2023-03-24T04:25:12.377Z,100.00
2023-03-24T04:28:26.221Z,100.00
2023-03-24T04:31:37.110Z,100.00
2023-03-24T04:34:45.038Z,100.00
2023-03-24T04:37:49.309Z,100.00
2023-03-24T04:40:55.629Z,100.00
2023-03-24T04:44:00.039Z,100.00
2023-03-24T04:47:07.557Z,100.00
2023-03-24T04:50:12.556Z,100.00
2023-03-24T04:53:15.286Z,100.00
2023-03-24T04:56:30.421Z,100.00
2023-03-24T04:59:34.357Z,100.00
2023-03-24T05:02:38.540Z,100.00
2023-03-24T05:05:41.828Z,100.00
2023-03-24T05:08:44.533Z,100.00
2023-03-24T05:11:47.115Z,100.00
2023-03-24T05:14:49.697Z,100.00
2023-03-24T05:17:53.690Z,100.00
2023-03-24T05:20:56.327Z,100.00
2023-03-24T05:23:58.905Z,100.00
2023-03-24T05:27:01.502Z,100.00
2023-03-24T05:30:04.732Z,100.00
2023-03-24T05:33:08.711Z,100.00
2023-03-24T05:36:12.154Z,100.00
2023-03-24T05:39:14.750Z,100.00
2023-03-24T05:42:17.651Z,100.00
2023-03-24T05:45:20.767Z,100.00
2023-03-24T05:48:24.726Z,100.00
2023-03-24T05:51:27.364Z,100.00
2023-03-24T05:54:29.957Z,100.00
2023-03-24T05:57:34.713Z,100.00
2023-03-24T06:00:38.135Z,100.00
2023-03-24T06:03:42.161Z,100.00
2023-03-24T06:06:45.499Z,100.00
2023-03-24T06:09:51.003Z,100.00
2023-03-24T06:12:54.208Z,100.00
2023-03-24T06:15:59.367Z,100.00
2023-03-24T06:19:04.443Z,100.00
2023-03-24T06:22:07.028Z,100.00
2023-03-24T06:25:10.134Z,100.00
2023-03-24T06:28:13.847Z,100.00
2023-03-24T06:31:19.301Z,100.00
2023-03-24T06:34:24.971Z,100.00
2023-03-24T06:37:27.859Z,100.00
2023-03-24T06:40:30.492Z,100.00
2023-03-24T06:43:33.833Z,100.00
2023-03-24T06:46:36.523Z,100.00
2023-03-24T06:49:40.534Z,100.00
2023-03-24T06:52:43.148Z,100.00
2023-03-24T06:55:46.032Z,100.00
2023-03-24T06:58:49.041Z,100.00
2023-03-24T07:01:51.940Z,100.00
2023-03-24T07:04:55.943Z,100.00
2023-03-24T07:11:06.044Z,100.00
2023-03-24T07:14:08.650Z,100.00
2023-03-24T07:17:11.264Z,100.00
2023-03-24T07:20:15.927Z,100.00
2023-03-24T07:23:18.577Z,100.00
2023-03-24T07:26:21.183Z,100.00
2023-03-24T07:29:23.963Z,100.00
2023-03-24T07:32:28.640Z,100.00
2023-03-24T07:35:32.970Z,100.00
2023-03-24T07:38:35.886Z,100.00
2023-03-24T07:41:38.472Z,100.00
2023-03-24T07:44:41.057Z,100.00
2023-03-24T07:47:44.715Z,100.00
2023-03-24T07:50:48.645Z,100.00
2023-03-24T07:53:51.446Z,100.00
2023-03-24T07:56:54.191Z,100.00
2023-03-24T07:59:57.016Z,100.00
2023-03-24T08:03:01.053Z,100.00
2023-03-24T08:06:05.644Z,100.00
2023-03-24T08:09:09.250Z,100.00
2023-03-24T08:12:19.955Z,100.00
2023-03-24T08:15:23.924Z,100.00
2023-03-24T08:18:26.525Z,100.00
2023-03-24T08:21:30.604Z,100.00
2023-03-24T08:24:33.189Z,100.00
2023-03-24T08:27:35.786Z,100.00
2023-03-24T08:30:38.374Z,100.00
2023-03-24T08:33:41.602Z,100.00
2023-03-24T08:36:45.727Z,100.00
2023-03-24T08:39:48.384Z,100.00
2023-03-24T08:42:52.916Z,100.00
2023-03-24T08:45:56.532Z,100.00
2023-03-24T08:48:59.731Z,100.00
2023-03-24T08:52:04.295Z,100.00
2023-03-24T08:55:07.644Z,100.00
2023-03-24T08:58:14.396Z,100.00
2023-03-24T09:01:17.751Z,100.00
2023-03-24T09:04:20.370Z,100.00
2023-03-24T09:07:24.365Z,100.00
2023-03-24T09:10:27.526Z,100.00
2023-03-24T09:13:30.249Z,100.00
2023-03-24T09:16:33.148Z,100.00
2023-03-24T09:19:35.995Z,100.00
2023-03-24T09:22:41.112Z,100.00
2023-03-24T09:25:46.240Z,100.00
2023-03-24T09:28:48.984Z,100.00
2023-03-24T09:31:53.727Z,100.00
2023-03-24T09:34:56.355Z,100.00
2023-03-24T09:38:00.321Z,100.00
2023-03-24T09:41:04.504Z,100.00
2023-03-24T09:44:16.675Z,100.00
2023-03-24T09:47:29.014Z,97.66
2023-03-24T09:50:40.102Z,97.93
2023-03-24T09:53:50.098Z,96.28
2023-03-24T09:56:53.910Z,96.80
2023-03-24T09:59:57.040Z,98.63
2023-03-24T10:03:03.084Z,98.35
2023-03-24T10:06:10.043Z,99.52
2023-03-24T10:09:24.383Z,99.21
2023-03-24T10:12:36.669Z,98.28
2023-03-24T10:15:44.881Z,97.42
2023-03-24T10:18:56.373Z,95.87
2023-03-24T10:22:05.252Z,96.49
2023-03-24T10:25:19.235Z,93.22
2023-03-24T10:28:26.665Z,94.48
2023-03-24T10:31:32.158Z,91.83
2023-03-24T10:34:35.950Z,91.17
2023-03-24T10:37:38.984Z,90.29
2023-03-24T10:40:43.823Z,90.04
2023-03-24T10:43:47.245Z,87.10
2023-03-24T10:46:54.205Z,87.98
2023-03-24T10:50:00.628Z,84.92
2023-03-24T10:53:09.714Z,80.16
2023-03-24T10:56:17.356Z,75.22
2023-03-24T10:59:25.455Z,73.86
2023-03-24T11:02:31.688Z,74.86
2023-03-24T11:05:37.686Z,72.32
2023-03-24T11:08:41.900Z,73.83
2023-03-24T11:11:46.119Z,76.26
2023-03-24T11:14:48.889Z,79.70
2023-03-24T11:17:56.402Z,80.71
2023-03-24T11:21:00.963Z,82.43
2023-03-24T11:24:11.516Z,76.65
2023-03-24T11:27:18.388Z,76.54
2023-03-24T11:30:21.161Z,73.89
2023-03-24T11:33:35.789Z,66.47
2023-03-24T11:36:50.327Z,68.69
2023-03-24T11:40:16.763Z,64.07
2023-03-24T11:43:22.486Z,65.05
2023-03-24T11:46:26.585Z,64.54
2023-03-24T11:49:32.775Z,69.36
2023-03-24T11:52:40.451Z,68.73
2023-03-24T11:55:48.647Z,68.80
2023-03-24T11:58:59.767Z,64.22
2023-03-24T12:02:12.914Z,63.22
2023-03-24T12:05:31.114Z,59.18
2023-03-24T12:08:46.181Z,58.71
2023-03-24T12:12:08.089Z,55.28
2023-03-24T12:15:41.527Z,58.10
2023-03-24T12:18:56.930Z,56.28
2023-03-24T12:22:09.562Z,55.21
2023-03-24T12:25:41.113Z,54.60
2023-03-24T12:28:58.672Z,54.30
2023-03-24T12:32:24.418Z,51.12
2023-03-24T12:35:49.031Z,50.47
2023-03-24T12:39:02.795Z,48.90
2023-03-24T12:42:11.283Z,48.50
2023-03-24T12:45:38.743Z,48.11
2023-03-24T12:49:02.564Z,48.14
2023-03-24T12:52:21.537Z,49.26
2023-03-24T12:55:31.897Z,48.29
2023-03-24T12:58:42.936Z,48.52
2023-03-24T13:01:49.976Z,48.97
2023-03-24T13:04:56.906Z,49.08
2023-03-24T13:08:04.164Z,51.04
2023-03-24T13:11:19.279Z,52.59
2023-03-24T13:14:35.349Z,52.87
2023-03-24T13:17:45.220Z,52.56
2023-03-24T13:20:53.146Z,51.84
2023-03-24T13:24:00.228Z,53.46
2023-03-24T13:27:10.536Z,55.06
2023-03-24T13:30:23.937Z,54.03
2023-03-24T13:33:29.857Z,54.69
2023-03-24T13:36:46.049Z,54.99
2023-03-24T13:39:52.715Z,55.45
2023-03-24T13:42:57.887Z,57.22
2023-03-24T13:46:02.858Z,56.77
2023-03-24T13:49:10.330Z,58.35
2023-03-24T13:52:29.726Z,58.76
2023-03-24T13:55:37.774Z,55.17
2023-03-24T13:58:50.245Z,53.81
2023-03-24T14:02:19.240Z,54.71
2023-03-24T14:05:42.669Z,50.70
2023-03-24T14:09:05.483Z,49.86
2023-03-24T14:12:26.980Z,47.63
2023-03-24T14:15:30.260Z,47.95
2023-03-24T14:18:43.562Z,46.54
2023-03-24T14:21:52.476Z,46.12
2023-03-24T14:25:00.446Z,43.60
2023-03-24T14:28:20.796Z,43.17
2023-03-24T14:31:25.315Z,42.41
2023-03-24T14:34:28.788Z,42.39
2023-03-24T14:37:31.585Z,41.42
2023-03-24T14:40:40.905Z,42.14
2023-03-24T14:43:59.054Z,41.81
2023-03-24T14:47:01.847Z,42.38
2023-03-24T14:50:18.293Z,43.10
2023-03-24T14:53:21.599Z,43.36
2023-03-24T14:56:32.247Z,41.73
2023-03-24T14:59:42.247Z,41.84
2023-03-24T15:02:47.998Z,41.41
2023-03-24T15:05:51.107Z,42.07
2023-03-24T15:08:56.499Z,41.44
2023-03-24T15:12:01.674Z,41.98
2023-03-24T15:15:04.508Z,42.65
2023-03-24T15:18:07.332Z,43.96
2023-03-24T15:21:25.293Z,43.39
2023-03-24T15:24:34.054Z,42.73
2023-03-24T15:27:39.508Z,43.60
2023-03-24T15:30:42.219Z,43.22
2023-03-24T15:33:46.035Z,44.52
2023-03-24T15:36:55.541Z,44.82
2023-03-24T15:40:08.961Z,45.24
2023-03-24T15:43:21.595Z,46.26
2023-03-24T15:46:28.025Z,45.84
2023-03-24T15:49:33.411Z,46.16
2023-03-24T15:52:37.773Z,46.18
2023-03-24T15:55:40.528Z,47.90
2023-03-24T15:58:53.715Z,47.65
2023-03-24T16:01:56.323Z,48.96
2023-03-24T16:05:11.017Z,48.89
2023-03-24T16:08:27.482Z,49.20
2023-03-24T16:11:30.549Z,49.18
2023-03-24T16:14:35.537Z,50.10
2023-03-24T16:17:38.182Z,50.39
2023-03-24T16:20:40.866Z,49.98
2023-03-24T16:23:44.295Z,50.95
2023-03-24T16:26:47.011Z,51.72
2023-03-24T16:29:51.028Z,50.74
2023-03-24T16:32:53.686Z,51.63
2023-03-24T16:35:56.372Z,51.97
2023-03-24T16:39:01.494Z,52.13
2023-03-24T16:42:04.244Z,53.18
2023-03-24T16:45:09.883Z,53.36
2023-03-24T16:48:12.747Z,54.25
2023-03-24T16:51:16.891Z,54.34
2023-03-24T16:54:19.898Z,55.62
2023-03-24T16:57:23.162Z,55.50
2023-03-24T17:00:27.529Z,56.28
2023-03-24T17:03:30.189Z,58.33
2023-03-24T17:06:33.793Z,57.76
2023-03-24T17:09:37.075Z,57.73
2023-03-24T17:12:39.723Z,58.57
2023-03-24T17:15:43.739Z,60.33
2023-03-24T17:18:46.406Z,62.16
2023-03-24T17:21:53.766Z,64.59
2023-03-24T17:24:58.188Z,68.55
2023-03-24T17:28:00.935Z,71.59
2023-03-24T17:31:05.457Z,72.01
2023-03-24T17:34:21.502Z,72.68
2023-03-24T17:37:26.984Z,74.53
2023-03-24T17:40:29.687Z,75.17
2023-03-24T17:43:32.815Z,74.66
2023-03-24T17:46:36.809Z,77.00
2023-03-24T17:49:39.425Z,78.01
2023-03-24T17:52:45.254Z,78.69
2023-03-24T17:55:47.864Z,78.56
2023-03-24T17:58:54.473Z,80.57
2023-03-24T18:01:58.586Z,80.96
2023-03-24T18:05:01.423Z,79.66
2023-03-24T18:08:04.152Z,81.87
2023-03-24T18:11:08.487Z,82.19
2023-03-24T18:14:11.110Z,82.11
2023-03-24T18:17:15.275Z,80.99
2023-03-24T18:20:18.108Z,81.13
2023-03-24T18:23:21.278Z,80.43
2023-03-24T18:26:24.260Z,81.27
2023-03-24T18:29:26.913Z,80.70
2023-03-24T18:32:33.000Z,80.93
2023-03-24T18:35:35.820Z,80.89
2023-03-24T18:38:38.497Z,81.29
2023-03-24T18:41:41.130Z,81.50
2023-03-24T18:44:44.820Z,81.70
2023-03-24T18:47:48.976Z,81.25
2023-03-24T18:50:51.906Z,83.40
2023-03-24T18:53:54.774Z,82.08
2023-03-24T18:56:57.708Z,82.78
2023-03-24T19:00:01.039Z,84.08
2023-03-24T19:03:06.554Z,83.95
2023-03-24T19:06:11.816Z,84.81
2023-03-24T19:09:14.776Z,87.11
2023-03-24T19:12:17.571Z,86.75
2023-03-24T19:15:20.176Z,88.27
2023-03-24T19:18:24.680Z,87.90
2023-03-24T19:21:27.702Z,87.47
2023-03-24T19:24:30.413Z,88.03
2023-03-24T19:27:33.023Z,89.19
2023-03-24T19:30:35.763Z,90.70
2023-03-24T19:33:39.752Z,89.97
2023-03-24T19:36:45.364Z,90.16
2023-03-24T19:39:49.012Z,90.64
2023-03-24T19:42:51.665Z,90.28
2023-03-24T19:45:55.955Z,90.62
2023-03-24T19:48:59.930Z,91.76
2023-03-24T19:52:03.808Z,92.05
2023-03-24T19:55:07.691Z,92.91
2023-03-24T19:58:10.275Z,94.57
2023-03-24T20:01:12.854Z,94.74
2023-03-24T20:04:16.779Z,94.35
2023-03-24T20:07:19.409Z,96.31
2023-03-24T20:10:22.094Z,95.66
2023-03-24T20:13:27.420Z,96.35
2023-03-24T20:16:30.138Z,96.01
2023-03-24T20:19:34.077Z,96.72
2023-03-24T20:22:37.351Z,97.26
2023-03-24T20:25:42.431Z,97.71
2023-03-24T20:28:45.136Z,98.80
2023-03-24T20:31:47.735Z,99.18
2023-03-24T20:34:52.184Z,99.74
2023-03-24T20:37:54.855Z,99.59
2023-03-24T20:41:01.037Z,98.94
2023-03-24T20:44:03.702Z,99.62
2023-03-24T20:47:06.341Z,98.51
2023-03-24T20:50:11.674Z,98.42
2023-03-24T20:53:14.368Z,97.76
2023-03-24T20:56:18.122Z,99.95
2023-03-24T20:59:21.214Z,99.50
2023-03-24T21:02:23.907Z,99.27
2023-03-24T21:05:28.122Z,100.00
2023-03-24T21:08:30.777Z,99.53
2023-03-24T21:11:34.004Z,100.00
2023-03-24T21:14:37.670Z,100.00
2023-03-24T21:17:40.372Z,99.59
2023-03-24T21:20:54.871Z,98.90
2023-03-24T21:23:57.976Z,99.89
2023-03-24T21:27:00.812Z,100.00
2023-03-24T21:30:03.421Z,100.00
2023-03-24T21:33:06.029Z,100.00
2023-03-24T21:36:11.610Z,100.00
2023-03-24T21:39:14.266Z,100.00
2023-03-24T21:42:19.236Z,100.00
2023-03-24T21:45:24.005Z,100.00
2023-03-24T21:48:27.565Z,100.00
2023-03-24T21:51:36.398Z,100.00
2023-03-24T21:54:41.747Z,100.00
2023-03-24T21:57:45.403Z,100.00
2023-03-24T22:00:49.266Z,100.00
2023-03-24T22:03:54.118Z,100.00
2023-03-24T22:06:58.208Z,100.00
2023-03-24T22:10:03.204Z,100.00
2023-03-24T22:13:06.002Z,100.00
2023-03-24T22:16:09.329Z,100.00
2023-03-24T22:19:11.910Z,100.00
2023-03-24T22:22:15.929Z,100.00
2023-03-24T22:25:19.909Z,100.00
2023-03-24T22:28:22.537Z,100.00
2023-03-24T22:31:25.332Z,100.00
2023-03-24T22:34:28.208Z,100.00
2023-03-24T22:37:32.453Z,100.00
2023-03-24T22:40:35.225Z,100.00
2023-03-24T22:43:39.434Z,100.00
2023-03-24T22:46:42.284Z,100.00
2023-03-24T22:49:44.900Z,100.00
2023-03-24T22:52:48.840Z,100.00
2023-03-24T22:55:51.757Z,100.00
2023-03-24T22:58:54.520Z,100.00
2023-03-24T23:02:08.674Z,100.00
2023-03-24T23:05:12.349Z,100.00
2023-03-24T23:08:16.754Z,100.00
2023-03-24T23:11:19.316Z,100.00
2023-03-24T23:14:22.047Z,100.00
2023-03-24T23:17:25.039Z,100.00
2023-03-24T23:20:29.677Z,100.00
2023-03-24T23:23:34.009Z,100.00
2023-03-24T23:26:36.660Z,100.00
2023-03-24T23:29:40.251Z,100.00
2023-03-24T23:32:43.705Z,100.00
2023-03-24T23:35:46.597Z,100.00
2023-03-24T23:38:51.966Z,100.00
2023-03-24T23:41:54.596Z,100.00
2023-03-24T23:44:57.142Z,100.00
2023-03-24T23:47:59.761Z,100.00
2023-03-24T23:51:04.851Z,100.00
2023-03-24T23:54:09.070Z,100.00
2023-03-24T23:57:12.200Z,100.00
